Time;durP1;ratioP1;P1;durP2;ratioP2;P2;SDS_P1;SDS_P2;PMS_P1;PMS_P2;Temp;Humidity;BMP_temperature;BMP_pressure;BME280_temperature;BME280_humidity;BME280_pressure;Samples;Min_cycle;Max_cycle;Signal;HPM_P1;HPM_P2
2022/08/28 00:02:08;;;;;;;0.00;0.00;;;17.20;99.90;;;;;;4994312;28;20581;-69
2022/08/28 00:04:34;;;;;;;0.00;0.00;;;17.20;99.90;;;;;;5010092;28;20044;-69
2022/08/28 00:07:00;;;;;;;0.00;0.00;;;17.20;99.90;;;;;;5010032;28;20046;-69
2022/08/28 00:09:26;;;;;;;0.00;0.00;;;17.20;99.90;;;;;;4994558;28;20053;-69
2022/08/28 00:11:52;;;;;;;0.00;0.00;;;17.10;99.90;;;;;;4991629;28;20042;-70
2022/08/28 00:14:19;;;;;;;0.40;0.35;;;17.10;99.90;;;;;;5009068;28;20121;-69
2022/08/28 00:16:49;;;;;;;0.03;0.03;;;17.10;99.90;;;;;;4990604;28;20034;-69
2022/08/28 00:19:19;;;;;;;0.00;0.00;;;17.10;99.90;;;;;;5007414;28;20041;-69
2022/08/28 00:21:45;;;;;;;0.00;0.00;;;17.10;99.90;;;;;;5003039;28;20042;-69
2022/08/28 00:24:11;;;;;;;0.10;0.10;;;17.00;99.90;;;;;;5003125;28;20050;-69
2022/08/28 00:29:21;;;;;;;0.00;0.00;;;17.00;99.90;;;;;;5009750;28;20072;-69
2022/08/28 00:31:47;;;;;;;0.00;0.00;;;17.10;99.90;;;;;;5009444;28;20054;-69
2022/08/28 00:34:13;;;;;;;0.10;0.10;;;17.00;99.90;;;;;;5003231;28;20053;-69
2022/08/28 00:36:40;;;;;;;0.10;0.10;;;17.00;99.90;;;;;;5000961;28;20037;-69
2022/08/28 00:39:07;;;;;;;0.00;0.00;;;17.00;99.90;;;;;;5003043;28;20142;-68
2022/08/28 00:41:35;;;;;;;0.10;0.10;;;17.00;99.90;;;;;;4996312;28;20046;-69
2022/08/28 00:44:08;;;;;;;0.00;0.00;;;17.00;99.90;;;;;;4999886;28;20043;-69
2022/08/28 00:46:34;;;;;;;0.05;0.05;;;17.00;99.90;;;;;;4990458;28;20058;-69
2022/08/28 00:49:00;;;;;;;0.00;0.00;;;17.00;99.90;;;;;;5005031;28;20112;-69
2022/08/28 00:54:10;;;;;;;0.00;0.00;;;16.90;99.90;;;;;;5002004;28;20093;-69
2022/08/28 00:56:39;;;;;;;0.03;0.03;;;16.90;99.90;;;;;;5003120;28;20070;-69
2022/08/28 00:59:09;;;;;;;0.00;0.00;;;16.80;99.90;;;;;;4991343;28;20058;-69
2022/08/28 01:01:37;;;;;;;11.43;1.20;;;16.90;99.90;;;;;;5007743;28;20103;-69
2022/08/28 01:04:05;;;;;;;0.00;0.00;;;16.90;99.90;;;;;;5008816;28;20117;-69
2022/08/28 01:06:31;;;;;;;0.00;0.00;;;16.90;99.90;;;;;;4995338;28;20065;-69
2022/08/28 01:08:57;;;;;;;0.65;0.65;;;16.90;99.90;;;;;;5006179;28;20103;-69
2022/08/28 01:11:23;;;;;;;0.10;0.10;;;16.90;99.90;;;;;;5001997;28;20042;-69
2022/08/28 01:13:50;;;;;;;1.08;0.20;;;16.90;99.90;;;;;;4997043;28;20042;-69
2022/08/28 01:16:17;;;;;;;0.10;0.10;;;16.90;99.90;;;;;;5009748;28;20445;-69
2022/08/28 01:18:45;;;;;;;0.10;0.10;;;16.80;99.90;;;;;;5009333;28;20042;-69
2022/08/28 01:21:19;;;;;;;0.00;0.00;;;16.90;99.90;;;;;;4999287;28;20072;-69
2022/08/28 01:23:53;;;;;;;0.35;0.35;;;16.80;99.90;;;;;;5002573;28;20100;-69
2022/08/28 01:26:20;;;;;;;0.10;0.10;;;16.70;99.90;;;;;;5002833;28;20046;-69
2022/08/28 01:28:46;;;;;;;0.10;0.10;;;16.70;99.90;;;;;;5000739;28;20046;-69
2022/08/28 01:31:14;;;;;;;0.43;0.43;;;16.70;99.90;;;;;;5004897;28;20033;-69
2022/08/28 01:33:41;;;;;;;0.45;0.45;;;16.70;99.90;;;;;;4990085;28;20054;-69
2022/08/28 01:36:09;;;;;;;0.35;0.35;;;16.70;99.90;;;;;;5007405;28;20077;-69
2022/08/28 01:38:36;;;;;;;1.75;0.82;;;16.70;99.90;;;;;;5002279;28;20046;-69
2022/08/28 01:41:01;;;;;;;0.10;0.10;;;16.70;99.90;;;;;;5002753;28;20156;-69
2022/08/28 01:43:27;;;;;;;0.10;0.10;;;16.70;99.90;;;;;;5003711;28;21027;-69
2022/08/28 01:45:56;;;;;;;0.00;0.00;;;16.70;99.90;;;;;;4997806;28;20043;-69
2022/08/28 01:48:24;;;;;;;0.47;0.47;;;16.70;99.90;;;;;;5001488;28;20050;-70
2022/08/28 01:50:51;;;;;;;0.40;0.40;;;16.70;99.90;;;;;;4991093;28;20049;-69
2022/08/28 01:53:22;;;;;;;14.23;1.75;;;16.70;99.90;;;;;;5006834;28;20123;-69
2022/08/28 01:55:48;;;;;;;0.00;0.00;;;16.70;99.90;;;;;;4992496;28;20042;-69
2022/08/28 01:58:15;;;;;;;0.10;0.10;;;16.70;99.90;;;;;;5009132;28;20473;-69
2022/08/28 02:00:41;;;;;;;0.00;0.00;;;16.60;99.90;;;;;;4991226;28;20109;-69
2022/08/28 02:03:07;;;;;;;0.10;0.10;;;16.60;99.90;;;;;;5002975;28;20497;-69
2022/08/28 02:05:33;;;;;;;0.10;0.10;;;16.60;99.90;;;;;;5008382;28;20521;-69
2022/08/28 02:08:01;;;;;;;0.10;0.10;;;16.60;99.90;;;;;;5007108;28;20052;-69
2022/08/28 02:10:28;;;;;;;0.00;0.00;;;16.70;99.90;;;;;;4991805;28;20057;-69
2022/08/28 02:12:55;;;;;;;0.10;0.10;;;16.70;99.90;;;;;;5007525;28;20073;-69
2022/08/28 02:15:24;;;;;;;7.38;0.30;;;16.70;99.90;;;;;;5008487;28;20038;-69
2022/08/28 02:17:50;;;;;;;1.15;1.10;;;16.70;99.90;;;;;;5005285;28;20125;-69
2022/08/28 02:20:16;;;;;;;0.00;0.00;;;16.70;99.90;;;;;;5000779;28;20050;-69
2022/08/28 02:22:42;;;;;;;0.00;0.00;;;16.70;99.90;;;;;;5006032;28;20144;-69
2022/08/28 02:25:08;;;;;;;0.38;0.38;;;16.70;99.90;;;;;;5008308;28;20042;-69
2022/08/28 02:27:35;;;;;;;0.00;0.00;;;16.70;99.90;;;;;;5002859;28;20397;-69
2022/08/28 02:30:01;;;;;;;0.10;0.10;;;16.70;99.90;;;;;;4989483;28;20149;-69
2022/08/28 02:32:28;;;;;;;0.05;0.05;;;16.60;99.90;;;;;;4994945;28;20057;-69
2022/08/28 02:34:54;;;;;;;0.10;0.10;;;16.60;99.90;;;;;;4996216;28;20054;-69
2022/08/28 02:37:23;;;;;;;0.17;0.17;;;16.60;99.90;;;;;;4993634;28;20525;-69
2022/08/28 02:39:49;;;;;;;0.00;0.00;;;16.60;99.90;;;;;;5011135;28;20529;-69
2022/08/28 02:42:15;;;;;;;0.10;0.10;;;16.60;99.90;;;;;;5011542;28;20379;-69
2022/08/28 02:44:41;;;;;;;0.00;0.00;;;16.60;99.90;;;;;;5002913;28;20077;-69
2022/08/28 02:47:07;;;;;;;0.00;0.00;;;16.50;99.90;;;;;;4993708;28;20049;-69
2022/08/28 02:49:33;;;;;;;0.00;0.00;;;16.60;99.90;;;;;;5012518;28;20057;-69
2022/08/28 02:51:59;;;;;;;0.10;0.10;;;16.60;99.90;;;;;;4996900;28;20494;-69
2022/08/28 02:54:25;;;;;;;0.00;0.00;;;16.60;99.90;;;;;;5011232;28;20046;-69
2022/08/28 02:56:51;;;;;;;0.10;0.10;;;16.50;99.90;;;;;;5011441;28;20049;-69
2022/08/28 02:59:17;;;;;;;0.00;0.00;;;16.60;99.90;;;;;;4995314;28;20061;-69
2022/08/28 03:01:43;;;;;;;0.75;0.55;;;16.50;99.90;;;;;;4997328;28;20474;-69
2022/08/28 03:04:09;;;;;;;0.10;0.10;;;16.50;99.90;;;;;;5006968;28;20497;-69
2022/08/28 03:06:35;;;;;;;0.00;0.00;;;16.50;99.90;;;;;;5007129;28;20038;-69
2022/08/28 03:09:00;;;;;;;0.10;0.10;;;16.40;99.90;;;;;;5012202;28;20034;-70
2022/08/28 03:11:26;;;;;;;0.00;0.00;;;16.50;99.90;;;;;;5001641;28;20410;-69
2022/08/28 03:13:52;;;;;;;0.08;0.08;;;16.60;99.90;;;;;;4996708;28;20078;-69
2022/08/28 03:16:17;;;;;;;0.10;0.10;;;16.50;99.90;;;;;;5000946;28;20049;-69
2022/08/28 03:18:43;;;;;;;0.10;0.10;;;16.50;99.90;;;;;;5012673;28;20084;-69
2022/08/28 03:21:09;;;;;;;0.10;0.10;;;16.50;99.90;;;;;;5007816;28;20073;-69
2022/08/28 03:23:35;;;;;;;0.10;0.10;;;16.50;99.90;;;;;;5011349;28;20556;-69
2022/08/28 03:26:05;;;;;;;0.20;0.20;;;16.50;99.90;;;;;;5010400;28;20045;-68
2022/08/28 03:28:33;;;;;;;0.00;0.00;;;16.50;99.90;;;;;;5010511;28;20489;-69
2022/08/28 03:30:59;;;;;;;0.00;0.00;;;16.50;99.90;;;;;;5010141;28;20037;-69
2022/08/28 03:33:26;;;;;;;2.10;0.50;;;16.50;99.90;;;;;;4995803;28;20100;-69
2022/08/28 03:35:52;;;;;;;0.00;0.00;;;16.40;99.90;;;;;;5008132;28;20046;-69
2022/08/28 03:38:18;;;;;;;0.05;0.05;;;16.40;99.90;;;;;;4999907;28;20386;-69
2022/08/28 03:40:45;;;;;;;0.00;0.00;;;16.40;99.90;;;;;;5004225;28;20093;-69
2022/08/28 03:43:13;;;;;;;0.32;0.32;;;16.40;99.90;;;;;;5002183;28;20050;-70
2022/08/28 03:45:39;;;;;;;0.10;0.10;;;16.50;99.90;;;;;;5009100;28;20461;-69
2022/08/28 03:48:06;;;;;;;0.20;0.20;;;16.40;99.90;;;;;;5010320;28;20053;-70
2022/08/28 03:50:33;;;;;;;0.10;0.10;;;16.40;99.90;;;;;;5009256;28;20042;-69
2022/08/28 03:52:58;;;;;;;0.30;0.30;;;16.40;99.90;;;;;;4999484;28;20050;-70
2022/08/28 03:55:24;;;;;;;0.10;0.10;;;16.50;99.90;;;;;;4994948;28;20046;-69
2022/08/28 03:57:50;;;;;;;3.25;0.70;;;16.40;99.90;;;;;;5009194;28;20054;-69
2022/08/28 04:00:16;;;;;;;0.10;0.10;;;16.50;99.90;;;;;;5010522;28;20057;-69
2022/08/28 04:02:43;;;;;;;0.95;0.93;;;16.50;99.90;;;;;;4993386;28;20054;-69
2022/08/28 04:05:09;;;;;;;1.25;1.10;;;16.50;99.90;;;;;;5004114;28;20520;-69
2022/08/28 04:07:36;;;;;;;0.05;0.05;;;16.50;99.90;;;;;;4998941;28;20486;-69
2022/08/28 04:10:03;;;;;;;0.10;0.10;;;16.50;99.90;;;;;;5003902;28;20124;-69
2022/08/28 04:12:28;;;;;;;0.00;0.00;;;16.50;99.90;;;;;;4997299;28;20057;-69
2022/08/28 04:14:54;;;;;;;0.10;0.10;;;16.50;99.90;;;;;;5004856;28;20034;-69
2022/08/28 04:17:19;;;;;;;0.17;0.17;;;16.50;99.90;;;;;;5010118;28;20541;-69
2022/08/28 04:19:45;;;;;;;0.00;0.00;;;16.60;99.90;;;;;;4999160;28;20076;-69
2022/08/28 04:22:11;;;;;;;0.00;0.00;;;16.60;99.90;;;;;;4993719;28;20384;-69
2022/08/28 04:24:36;;;;;;;0.00;0.00;;;16.60;99.90;;;;;;5008085;28;20037;-69
2022/08/28 04:27:02;;;;;;;0.00;0.00;;;16.60;99.90;;;;;;5004578;28;20073;-69
2022/08/28 04:29:30;;;;;;;0.10;0.10;;;16.60;99.90;;;;;;4999937;28;20057;-69
2022/08/28 04:31:56;;;;;;;0.25;0.22;;;16.60;99.90;;;;;;5009340;28;20054;-69
2022/08/28 04:34:22;;;;;;;0.00;0.00;;;16.60;99.90;;;;;;5000584;28;20052;-70
2022/08/28 04:36:51;;;;;;;0.10;0.10;;;16.70;99.90;;;;;;5004026;28;20048;-69
2022/08/28 04:39:17;;;;;;;0.03;0.03;;;16.70;99.90;;;;;;5009407;28;20065;-69
2022/08/28 04:41:42;;;;;;;0.00;0.00;;;16.70;99.90;;;;;;5000574;28;20564;-70
2022/08/28 04:44:08;;;;;;;0.00;0.00;;;16.70;99.90;;;;;;4997676;28;20042;-69
2022/08/28 04:46:35;;;;;;;0.03;0.03;;;16.70;99.90;;;;;;5005262;28;20046;-70
2022/08/28 04:49:03;;;;;;;0.10;0.10;;;16.80;99.90;;;;;;5009300;28;20041;-70
2022/08/28 04:51:28;;;;;;;0.00;0.00;;;16.80;99.90;;;;;;5002748;28;20046;-70
2022/08/28 04:53:55;;;;;;;0.00;0.00;;;16.80;99.90;;;;;;5004482;28;20045;-70
2022/08/28 04:56:21;;;;;;;0.10;0.10;;;16.90;99.90;;;;;;5006483;28;20057;-70
2022/08/28 04:58:46;;;;;;;0.10;0.10;;;16.90;99.90;;;;;;4990086;28;20106;-70
2022/08/28 05:01:17;;;;;;;0.00;0.00;;;17.00;99.90;;;;;;4999740;28;20046;-70
2022/08/28 05:03:44;;;;;;;0.00;0.00;;;17.00;99.90;;;;;;5001676;28;20046;-69
2022/08/28 05:06:12;;;;;;;0.10;0.10;;;17.00;99.90;;;;;;5007182;28;20514;-69
2022/08/28 05:08:37;;;;;;;0.85;0.52;;;17.00;99.90;;;;;;5006745;28;20498;-70
2022/08/28 05:11:18;;;;;;;0.00;0.00;;;17.00;99.90;;;;;;5008520;28;20114;-69
2022/08/28 05:13:44;;;;;;;0.30;0.30;;;17.10;99.90;;;;;;4994172;28;20056;-70
2022/08/28 05:16:11;;;;;;;0.00;0.00;;;17.10;99.90;;;;;;5005863;28;20042;-69
2022/08/28 05:18:36;;;;;;;0.10;0.10;;;17.00;99.90;;;;;;5005900;28;20189;-69
2022/08/28 05:21:03;;;;;;;0.00;0.00;;;17.00;99.90;;;;;;5006085;28;20069;-69
2022/08/28 05:23:29;;;;;;;0.08;0.08;;;17.00;99.90;;;;;;4994354;28;20500;-69
2022/08/28 05:25:55;;;;;;;0.10;0.10;;;16.90;99.90;;;;;;5008771;28;20053;-69
2022/08/28 05:28:23;;;;;;;0.13;0.13;;;16.90;99.90;;;;;;5006652;28;20050;-69
2022/08/28 05:30:48;;;;;;;0.00;0.00;;;17.00;99.90;;;;;;4995964;28;20138;-70
2022/08/28 05:33:15;;;;;;;0.10;0.10;;;17.00;99.90;;;;;;4997067;28;20149;-70
2022/08/28 05:35:43;;;;;;;1.55;0.52;;;17.10;99.90;;;;;;4994116;28;20133;-69
2022/08/28 05:38:11;;;;;;;0.10;0.10;;;17.10;99.90;;;;;;5001678;28;20559;-70
2022/08/28 05:40:41;;;;;;;0.10;0.10;;;17.10;99.90;;;;;;5000751;28;20053;-70
2022/08/28 05:43:07;;;;;;;0.00;0.00;;;17.10;99.90;;;;;;4996543;28;20113;-70
2022/08/28 05:45:32;;;;;;;0.00;0.00;;;17.10;99.90;;;;;;5007485;28;20497;-70
2022/08/28 05:47:58;;;;;;;5.85;0.30;;;17.20;99.90;;;;;;5008399;28;20099;-70
2022/08/28 05:50:23;;;;;;;0.10;0.10;;;17.10;99.90;;;;;;4999153;28;20050;-70
2022/08/28 05:52:49;;;;;;;0.00;0.00;;;17.10;99.90;;;;;;5007865;28;20045;-70
2022/08/28 05:55:15;;;;;;;0.08;0.08;;;17.20;99.90;;;;;;5005112;28;20495;-70
2022/08/28 05:57:40;;;;;;;2.17;1.13;;;17.10;99.90;;;;;;4999491;28;20096;-70
2022/08/28 06:00:11;;;;;;;0.30;0.30;;;17.10;99.90;;;;;;4996182;28;20073;-70
2022/08/28 06:02:37;;;;;;;0.00;0.00;;;17.20;99.90;;;;;;5005086;28;20050;-70
2022/08/28 06:05:02;;;;;;;0.00;0.00;;;17.20;99.90;;;;;;5008202;28;20041;-70
2022/08/28 06:07:28;;;;;;;0.03;0.03;;;17.20;99.90;;;;;;5005778;28;20054;-69
2022/08/28 06:09:54;;;;;;;0.10;0.10;;;17.20;99.90;;;;;;4993905;28;20096;-69
2022/08/28 06:12:20;;;;;;;0.00;0.00;;;17.30;99.90;;;;;;4998112;28;20048;-70
2022/08/28 06:14:46;;;;;;;0.10;0.10;;;17.40;99.90;;;;;;5007869;28;20049;-70
2022/08/28 06:17:11;;;;;;;0.08;0.08;;;17.40;99.90;;;;;;5012084;28;20042;-70
2022/08/28 06:19:37;;;;;;;0.03;0.03;;;17.40;99.90;;;;;;5007039;28;20050;-69
2022/08/28 06:22:04;;;;;;;0.10;0.10;;;17.40;99.90;;;;;;4999078;28;20501;-70
2022/08/28 06:24:31;;;;;;;0.05;0.05;;;17.30;99.90;;;;;;5011753;28;20037;-70
2022/08/28 06:26:58;;;;;;;0.10;0.10;;;17.40;99.90;;;;;;5011768;28;20046;-70
2022/08/28 06:29:24;;;;;;;0.10;0.10;;;17.30;99.90;;;;;;5009446;28;20056;-69
2022/08/28 06:31:59;;;;;;;0.00;0.00;;;17.40;99.90;;;;;;5010274;28;20389;-70
2022/08/28 06:34:26;;;;;;;1.05;0.55;;;17.40;99.90;;;;;;5010254;28;20049;-70
2022/08/28 06:36:52;;;;;;;0.00;0.00;;;17.50;99.90;;;;;;5008711;28;20045;-70
2022/08/28 06:39:18;;;;;;;0.52;0.20;;;17.50;99.90;;;;;;4997958;28;20085;-70
2022/08/28 06:41:44;;;;;;;0.00;0.00;;;17.60;99.90;;;;;;5010667;28;20124;-71
2022/08/28 06:44:13;;;;;;;0.10;0.10;;;17.60;99.90;;;;;;5009516;28;20402;-70
2022/08/28 06:46:40;;;;;;;0.05;0.05;;;17.70;99.90;;;;;;4997632;28;20482;-70
2022/08/28 06:49:07;;;;;;;0.00;0.00;;;17.80;99.90;;;;;;5008276;28;20513;-70
2022/08/28 06:51:33;;;;;;;0.30;0.30;;;17.90;99.90;;;;;;5007632;28;20044;-70
2022/08/28 06:53:59;;;;;;;0.00;0.00;;;18.10;99.90;;;;;;5000880;28;20471;-70
2022/08/28 06:56:24;;;;;;;0.20;0.20;;;18.20;99.90;;;;;;4993457;28;20137;-70
2022/08/28 06:58:50;;;;;;;0.00;0.00;;;18.20;99.90;;;;;;4994519;28;20053;-70
2022/08/28 07:01:22;;;;;;;0.00;0.00;;;18.20;99.90;;;;;;5012826;28;20390;-71
2022/08/28 07:03:49;;;;;;;0.10;0.10;;;18.10;99.90;;;;;;4999103;28;20054;-71
2022/08/28 07:06:16;;;;;;;0.00;0.00;;;18.10;99.90;;;;;;4992516;28;20042;-70
2022/08/28 07:08:43;;;;;;;0.30;0.30;;;18.10;99.90;;;;;;5005257;28;20585;-70
2022/08/28 07:11:17;;;;;;;0.13;0.13;;;18.10;99.90;;;;;;5010095;28;20037;-70
2022/08/28 07:13:44;;;;;;;0.00;0.00;;;18.20;99.90;;;;;;5004884;28;20548;-70
2022/08/28 07:16:11;;;;;;;0.15;0.15;;;18.20;99.90;;;;;;4992448;28;20447;-70
2022/08/28 07:18:37;;;;;;;3.42;1.65;;;18.20;99.90;;;;;;4997884;28;20047;-70
2022/08/28 07:21:03;;;;;;;0.00;0.00;;;18.20;99.90;;;;;;5000417;28;20041;-70
2022/08/28 07:23:30;;;;;;;0.00;0.00;;;18.30;99.90;;;;;;5011899;28;20065;-70
2022/08/28 07:25:56;;;;;;;0.10;0.10;;;18.40;99.90;;;;;;5007872;28;20056;-70
2022/08/28 07:28:23;;;;;;;0.30;0.30;;;18.50;99.90;;;;;;5001374;28;20403;-70
2022/08/28 07:30:58;;;;;;;0.00;0.00;;;18.50;99.90;;;;;;5009203;28;20041;-68
2022/08/28 07:33:24;;;;;;;0.00;0.00;;;18.60;99.90;;;;;;5008230;28;20058;-68
2022/08/28 07:35:49;;;;;;;0.43;0.43;;;18.70;99.90;;;;;;5008365;28;20507;-68
2022/08/28 07:38:15;;;;;;;2.40;0.57;;;18.80;99.90;;;;;;5011098;28;20045;-68
2022/08/28 07:40:41;;;;;;;0.10;0.10;;;18.70;99.90;;;;;;4998174;28;20105;-68
2022/08/28 07:46:04;;;;;;;0.00;0.00;;;18.80;99.90;;;;;;5011914;28;20046;-70
2022/08/28 07:48:29;;;;;;;0.00;0.00;;;18.80;99.90;;;;;;4996692;28;20042;-70
2022/08/28 07:50:55;;;;;;;0.10;0.10;;;18.60;99.90;;;;;;5006413;28;20175;-70
2022/08/28 07:53:20;;;;;;;0.20;0.20;;;18.60;99.90;;;;;;4996641;28;20038;-70
2022/08/28 07:55:50;;;;;;;0.00;0.00;;;18.70;99.90;;;;;;4990638;28;20101;-70
2022/08/28 07:58:16;;;;;;;0.32;0.32;;;18.90;99.90;;;;;;4991431;28;20614;-70
2022/08/28 08:00:42;;;;;;;0.00;0.00;;;18.90;99.90;;;;;;4990606;28;20112;-70
2022/08/28 08:03:07;;;;;;;0.30;0.28;;;18.80;99.90;;;;;;4991491;28;20089;-70
2022/08/28 08:05:33;;;;;;;0.00;0.00;;;18.80;99.90;;;;;;4992206;28;20410;-70
2022/08/28 08:07:59;;;;;;;0.10;0.10;;;18.70;99.90;;;;;;4995360;28;20409;-69
2022/08/28 08:10:24;;;;;;;5.38;1.45;;;18.80;99.90;;;;;;5005893;28;20052;-70
2022/08/28 08:12:51;;;;;;;0.00;0.00;;;18.90;99.90;;;;;;5001415;28;20041;-70
2022/08/28 08:15:16;;;;;;;0.00;0.00;;;19.00;99.90;;;;;;5003716;28;20060;-69
2022/08/28 08:17:42;;;;;;;0.00;0.00;;;19.10;99.90;;;;;;5000329;28;20038;-70
2022/08/28 08:20:08;;;;;;;0.00;0.00;;;19.10;99.90;;;;;;5010089;28;20046;-71
2022/08/28 08:22:34;;;;;;;0.30;0.20;;;19.20;99.90;;;;;;4999993;28;20041;-71
2022/08/28 08:25:03;;;;;;;0.10;0.10;;;19.30;99.90;;;;;;5004931;28;20054;-71
2022/08/28 08:27:29;;;;;;;0.00;0.00;;;19.30;99.90;;;;;;4994019;28;20105;-71
2022/08/28 08:29:55;;;;;;;0.00;0.00;;;19.30;99.90;;;;;;4999718;28;20437;-72
2022/08/28 08:32:20;;;;;;;0.08;0.08;;;19.30;99.90;;;;;;5002444;28;20493;-71
2022/08/28 08:34:46;;;;;;;0.00;0.00;;;19.40;99.90;;;;;;4996655;28;20118;-71
2022/08/28 08:37:12;;;;;;;7.78;0.85;;;19.40;99.90;;;;;;5004030;28;20402;-71
2022/08/28 08:39:40;;;;;;;0.00;0.00;;;19.40;99.90;;;;;;5001546;28;20054;-71
2022/08/28 08:42:22;;;;;;;0.00;0.00;;;19.50;99.90;;;;;;5004053;28;20058;-71
2022/08/28 08:44:48;;;;;;;0.30;0.30;;;19.70;99.90;;;;;;5005211;28;20176;-71
2022/08/28 08:47:23;;;;;;;0.05;0.05;;;19.80;99.90;;;;;;5004434;28;20049;-71
2022/08/28 08:49:59;;;;;;;0.28;0.22;;;19.90;99.90;;;;;;4998760;28;20053;-72
2022/08/28 08:52:36;;;;;;;0.55;0.55;;;19.80;99.90;;;;;;5008626;28;20084;-72
2022/08/28 08:55:08;;;;;;;0.00;0.00;;;19.70;99.90;;;;;;5007040;28;20049;-71
2022/08/28 08:57:36;;;;;;;0.00;0.00;;;19.70;99.90;;;;;;4998514;28;20037;-71
2022/08/28 09:00:07;;;;;;;0.20;0.20;;;19.80;99.90;;;;;;4990661;28;20054;-70
2022/08/28 09:02:40;;;;;;;0.00;0.00;;;19.90;99.90;;;;;;4989236;28;20070;-71
2022/08/28 09:05:10;;;;;;;0.10;0.10;;;20.00;99.90;;;;;;4997961;28;20038;-71
2022/08/28 09:07:43;;;;;;;1.10;0.47;;;20.40;99.90;;;;;;5009249;28;20049;-71
2022/08/28 09:10:11;;;;;;;0.38;0.38;;;20.40;99.90;;;;;;5010111;28;20441;-71
2022/08/28 09:13:05;;;;;;;0.08;0.08;;;20.70;99.90;;;;;;5005658;28;20069;-71
2022/08/28 09:15:33;;;;;;;0.10;0.10;;;21.50;99.90;;;;;;5001773;28;20089;-70
2022/08/28 09:18:07;;;;;;;0.00;0.00;;;22.00;98.80;;;;;;5009398;28;20078;-70
2022/08/28 09:20:32;;;;;;;0.15;0.15;;;22.60;98.90;;;;;;5009066;28;20092;-70
2022/08/28 09:22:58;;;;;;;0.13;0.08;;;22.70;98.90;;;;;;4995033;28;20038;-70
2022/08/28 09:25:43;;;;;;;0.10;0.10;;;23.10;98.90;;;;;;5007458;28;20053;-70
2022/08/28 09:28:12;;;;;;;0.00;0.00;;;23.50;99.00;;;;;;4997597;28;20052;-71
2022/08/28 09:30:40;;;;;;;0.00;0.00;;;23.60;98.60;;;;;;5003526;28;20063;-71
2022/08/28 09:33:06;;;;;;;0.38;0.38;;;23.90;98.00;;;;;;5001426;28;20584;-71
2022/08/28 09:35:36;;;;;;;0.00;0.00;;;23.90;98.10;;;;;;5005309;28;20081;-71
2022/08/28 09:38:22;;;;;;;0.00;0.00;;;23.30;98.30;;;;;;5007076;28;20041;-71
2022/08/28 09:43:35;;;;;;;0.00;0.00;;;23.80;97.90;;;;;;4999974;28;20401;-71
2022/08/28 09:46:18;;;;;;;0.15;0.15;;;23.10;98.00;;;;;;5007055;28;20054;-71
2022/08/28 09:48:46;;;;;;;0.98;0.55;;;22.50;99.30;;;;;;4996920;28;20078;-71
2022/08/28 09:51:21;;;;;;;1.67;0.65;;;22.00;99.30;;;;;;5007521;28;20188;-71
2022/08/28 09:53:49;;;;;;;1.35;0.30;;;21.60;99.90;;;;;;5001567;28;20128;-71
2022/08/28 09:56:38;;;;;;;0.00;0.00;;;21.10;99.90;;;;;;4999859;28;20050;-71
2022/08/28 09:59:11;;;;;;;0.00;0.00;;;20.90;99.90;;;;;;5001609;28;20049;-71
2022/08/28 10:01:48;;;;;;;0.10;0.10;;;20.70;99.90;;;;;;5012852;28;20097;-71
2022/08/28 10:04:29;;;;;;;2.08;1.25;;;20.70;99.90;;;;;;5010140;28;20056;-71
2022/08/28 10:07:12;;;;;;;0.05;0.05;;;20.60;99.90;;;;;;5008403;28;20045;-70
2022/08/28 10:09:43;;;;;;;0.00;0.00;;;20.70;99.90;;;;;;5006418;28;20042;-70
2022/08/28 10:12:34;;;;;;;0.00;0.00;;;20.60;99.90;;;;;;5006283;28;20058;-69
2022/08/28 10:15:17;;;;;;;0.90;0.90;;;20.70;99.90;;;;;;5000468;28;20451;-69
2022/08/28 10:18:21;;;;;;;0.00;0.00;;;20.90;99.90;;;;;;4997269;28;20363;-69
2022/08/28 10:21:09;;;;;;;0.00;0.00;;;21.40;99.90;;;;;;4997022;28;20076;-70
2022/08/28 10:24:14;;;;;;;2.42;0.30;;;22.00;99.00;;;;;;5012913;28;20486;-70
2022/08/28 10:27:10;;;;;;;0.00;0.00;;;21.80;99.20;;;;;;4996557;28;20042;-71
2022/08/28 10:30:03;;;;;;;0.00;0.00;;;22.40;98.30;;;;;;5007086;28;20038;-71
2022/08/28 10:33:07;;;;;;;0.00;0.00;;;21.90;98.60;;;;;;5001565;28;20045;-70
2022/08/28 10:35:54;;;;;;;0.90;0.88;;;21.60;99.40;;;;;;5003503;28;20304;-72
2022/08/28 10:38:47;;;;;;;0.00;0.00;;;21.40;99.60;;;;;;5002781;28;20053;-71
2022/08/28 10:41:18;;;;;;;0.88;0.85;;;21.20;99.80;;;;;;5005901;28;20038;-71
2022/08/28 10:43:47;;;;;;;0.10;0.10;;;21.10;99.80;;;;;;4998006;28;20494;-71
2022/08/28 10:46:18;;;;;;;0.00;0.00;;;21.50;99.40;;;;;;4996833;28;20046;-71
2022/08/28 10:48:53;;;;;;;0.05;0.05;;;21.70;99.20;;;;;;5010640;28;20482;-71
2022/08/28 10:51:34;;;;;;;0.60;0.30;;;22.20;98.40;;;;;;5008182;28;20080;-71
2022/08/28 10:54:17;;;;;;;0.00;0.00;;;22.50;98.00;;;;;;5008685;28;20521;-71
2022/08/28 10:56:50;;;;;;;0.00;0.00;;;22.80;97.60;;;;;;5005750;28;20057;-71
2022/08/28 10:59:15;;;;;;;0.00;0.00;;;23.00;97.20;;;;;;4999412;28;20050;-71
2022/08/28 11:01:41;;;;;;;1.17;0.45;;;23.30;96.10;;;;;;5012216;28;20048;-71
2022/08/28 11:04:16;;;;;;;0.00;0.00;;;23.40;96.90;;;;;;5000565;28;20046;-71
2022/08/28 11:06:46;;;;;;;0.00;0.00;;;23.40;96.70;;;;;;4997991;28;20045;-71
2022/08/28 11:09:35;;;;;;;0.10;0.10;;;23.60;96.00;;;;;;5002904;28;20085;-71
2022/08/28 11:12:22;;;;;;;0.20;0.20;;;23.80;95.20;;;;;;5007928;28;20386;-71
2022/08/28 11:14:49;;;;;;;1.17;0.28;;;23.80;95.20;;;;;;4992929;28;21049;-71
2022/08/28 11:17:24;;;;;;;0.00;0.00;;;23.80;95.70;;;;;;4994721;28;20487;-71
2022/08/28 11:20:02;;;;;;;0.20;0.20;;;23.90;95.30;;;;;;4992565;28;20034;-70
2022/08/28 11:22:48;;;;;;;0.25;0.25;;;24.20;95.40;;;;;;4994512;28;20058;-70
2022/08/28 11:25:40;;;;;;;4.38;0.63;;;24.30;95.80;;;;;;4997818;28;20065;-71
2022/08/28 11:28:24;;;;;;;0.00;0.00;;;24.20;95.70;;;;;;4994038;28;20520;-71
2022/08/28 11:31:04;;;;;;;0.10;0.10;;;23.70;95.90;;;;;;5005382;28;20053;-70
2022/08/28 11:33:51;;;;;;;0.80;0.47;;;23.70;96.30;;;;;;4997599;28;20054;-70
2022/08/28 11:36:19;;;;;;;0.00;0.00;;;23.60;96.20;;;;;;5007154;28;20061;-71
2022/08/28 11:38:45;;;;;;;0.00;0.00;;;23.30;96.90;;;;;;5008008;28;20049;-70
2022/08/28 11:41:10;;;;;;;0.00;0.00;;;23.20;96.80;;;;;;4996036;28;20054;-71
2022/08/28 11:43:39;;;;;;;3.35;1.08;;;23.30;95.90;;;;;;5003667;28;20046;-71
2022/08/28 11:46:11;;;;;;;0.10;0.10;;;23.40;96.10;;;;;;5009288;28;20057;-71
2022/08/28 11:48:38;;;;;;;0.00;0.00;;;24.00;96.10;;;;;;5011360;28;20037;-71
2022/08/28 11:51:15;;;;;;;0.25;0.08;;;23.60;96.30;;;;;;4994944;28;20058;-71
2022/08/28 11:54:09;;;;;;;0.00;0.00;;;23.20;96.00;;;;;;4991897;28;20054;-71
2022/08/28 11:56:46;;;;;;;0.10;0.10;;;23.80;95.70;;;;;;5009337;28;20049;-71
2022/08/28 11:59:33;;;;;;;0.00;0.00;;;24.40;95.60;;;;;;5007865;28;20058;-71
2022/08/28 12:02:42;;;;;;;0.00;0.00;;;24.80;95.50;;;;;;4991951;28;20056;-70
2022/08/28 12:05:31;;;;;;;0.00;0.00;;;24.60;95.20;;;;;;5006583;28;20506;-70
2022/08/28 12:08:03;;;;;;;0.03;0.03;;;24.60;95.60;;;;;;4991491;28;20054;-70
2022/08/28 12:10:29;;;;;;;0.00;0.00;;;24.10;95.50;;;;;;5001558;28;20129;-70
2022/08/28 12:12:56;;;;;;;0.00;0.00;;;24.30;95.80;;;;;;5008946;28;20168;-71
2022/08/28 12:15:31;;;;;;;0.00;0.00;;;24.90;95.80;;;;;;5004960;28;20073;-70
2022/08/28 12:17:58;;;;;;;1.55;0.30;;;24.30;95.60;;;;;;4991277;28;20474;-70
2022/08/28 12:20:34;;;;;;;0.00;0.00;;;23.90;95.90;;;;;;5001780;28;20117;-70
2022/08/28 12:23:22;;;;;;;0.00;0.00;;;23.90;96.00;;;;;;4997877;28;20390;-70
2022/08/28 12:25:50;;;;;;;0.10;0.10;;;24.40;96.80;;;;;;4993907;28;20053;-70
2022/08/28 12:28:23;;;;;;;0.20;0.20;;;25.00;96.50;;;;;;5008812;28;20911;-70
2022/08/28 12:30:54;;;;;;;;;;;24.90;95.70;;;;;;5003793;28;20054;-71
2022/08/28 12:33:46;;;;;;;0.52;0.05;;;24.50;95.80;;;;;;4998548;28;20010;-70
2022/08/28 12:36:15;;;;;;;0.13;0.13;;;25.20;96.20;;;;;;5000731;28;20494;-70
2022/08/28 12:38:48;;;;;;;0.00;0.00;;;24.50;96.10;;;;;;4997195;28;20495;-70
2022/08/28 12:41:15;;;;;;;;;;;24.20;96.50;;;;;;4996313;28;20053;-70
2022/08/28 12:43:45;;;;;;;0.00;0.00;;;23.80;96.50;;;;;;5006363;28;19968;-70
2022/08/28 12:46:15;;;;;;;0.00;0.00;;;23.70;97.00;;;;;;5003261;28;20041;-71
2022/08/28 12:49:27;;;;;;;0.00;0.00;;;23.50;97.10;;;;;;4999465;28;20401;-70
2022/08/28 12:52:19;;;;;;;8.68;0.65;;;23.50;97.50;;;;;;4998722;28;20414;-70
2022/08/28 12:54:47;;;;;;;0.00;0.00;;;23.20;98.00;;;;;;4998217;28;20042;-70
2022/08/28 12:57:17;;;;;;;0.00;0.00;;;23.20;98.20;;;;;;5009900;28;20152;-70
2022/08/28 12:59:53;;;;;;;0.00;0.00;;;23.00;98.30;;;;;;5005500;28;20093;-70
2022/08/28 13:02:32;;;;;;;0.45;0.45;;;22.90;98.30;;;;;;4989642;28;20426;-70
2022/08/28 13:05:08;;;;;;;0.00;0.00;;;22.80;98.20;;;;;;5006287;28;20383;-70
2022/08/28 13:07:48;;;;;;;0.28;0.10;;;23.00;98.60;;;;;;4995129;28;20414;-70
2022/08/28 13:10:23;;;;;;;0.22;0.22;;;23.00;98.10;;;;;;4990054;28;20060;-70
2022/08/28 13:12:59;;;;;;;0.98;0.90;;;22.90;98.70;;;;;;4996731;28;20061;-70
2022/08/28 13:15:49;;;;;;;0.00;0.00;;;22.70;98.70;;;;;;5009724;28;20045;-70